createdAt,value
2019-03-15T00:00:20.080Z,94217.02
2019-03-15T00:02:46.445Z,94219.83
2019-03-15T00:05:12.861Z,94213.78
2019-03-15T00:07:39.191Z,94215.06
2019-03-15T00:10:05.544Z,94215.53
2019-03-15T00:12:31.907Z,94207.00
2019-03-15T00:14:58.190Z,94207.81
2019-03-15T00:17:24.603Z,94208.43
2019-03-15T00:19:50.924Z,94209.72
2019-03-15T00:22:17.359Z,94202.35
2019-03-15T00:24:43.713Z,94206.33
2019-03-15T00:27:10.040Z,94204.45
2019-03-15T00:29:36.356Z,94210.88
2019-03-15T00:32:02.686Z,94212.16
2019-03-15T00:34:29.025Z,94209.71
2019-03-15T00:36:55.407Z,94211.14
2019-03-15T00:39:21.949Z,94206.12
2019-03-15T00:41:48.084Z,94207.95
2019-03-15T00:44:14.449Z,94208.37
2019-03-15T00:46:40.743Z,94217.68
2019-03-15T00:49:07.071Z,94210.23
2019-03-15T00:51:33.428Z,94202.20
2019-03-15T00:53:59.761Z,94207.20
2019-03-15T00:56:26.228Z,94198.34
2019-03-15T00:58:52.572Z,94196.50
2019-03-15T01:01:18.929Z,94193.47
2019-03-15T01:03:45.282Z,94192.19
2019-03-15T01:06:11.686Z,94189.02
2019-03-15T01:08:38.016Z,94188.98
2019-03-15T01:11:04.304Z,94188.27
2019-03-15T01:13:30.684Z,94179.28
2019-03-15T01:15:57.062Z,94177.18
2019-03-15T01:18:23.442Z,94178.00
2019-03-15T01:20:49.748Z,94179.08
2019-03-15T01:23:16.132Z,94179.75
2019-03-15T01:25:42.487Z,94182.58
2019-03-15T01:28:08.862Z,94183.60
2019-03-15T01:30:35.248Z,94185.85
2019-03-15T01:33:01.603Z,94180.47
2019-03-15T01:35:28.172Z,94181.29
2019-03-15T01:37:54.466Z,94182.31
2019-03-15T01:40:20.840Z,94174.30
2019-03-15T01:42:47.894Z,94171.00
2019-03-15T01:45:13.667Z,94171.78
2019-03-15T01:47:40.013Z,94170.76
2019-03-15T01:50:06.233Z,94167.72
2019-03-15T01:52:33.479Z,94169.16
2019-03-15T01:54:59.013Z,94168.33
2019-03-15T01:57:25.344Z,94166.73
2019-03-15T01:59:51.835Z,94163.61
2019-03-15T02:02:18.231Z,94165.04
2019-03-15T02:04:44.596Z,94160.46
2019-03-15T02:07:10.944Z,94158.09
2019-03-15T02:09:37.339Z,94156.87
2019-03-15T02:12:03.681Z,94147.73
2019-03-15T02:14:30.020Z,94140.37
2019-03-15T02:16:56.349Z,94143.77
2019-03-15T02:19:22.681Z,94145.84
2019-03-15T02:21:49.077Z,94144.32
2019-03-15T02:24:15.420Z,94150.04
2019-03-15T02:26:41.753Z,94146.66
2019-03-15T02:29:08.097Z,94148.41
2019-03-15T02:31:34.479Z,94154.91
2019-03-15T02:34:00.807Z,94152.81
2019-03-15T02:36:27.191Z,94152.23
2019-03-15T02:38:54.163Z,94156.20
2019-03-15T02:41:19.843Z,94160.05
2019-03-15T02:43:46.201Z,94160.20
2019-03-15T02:46:12.504Z,94163.80
2019-03-15T02:48:38.895Z,94164.81
2019-03-15T02:51:05.265Z,94160.52
2019-03-15T02:53:31.551Z,94168.47
2019-03-15T02:55:58.050Z,94168.78
2019-03-15T02:58:24.451Z,94171.03
2019-03-15T03:00:51.019Z,94182.86
2019-03-15T03:03:17.130Z,94181.58
2019-03-15T03:05:43.488Z,94181.08
2019-03-15T03:08:09.816Z,94180.96
2019-03-15T03:10:36.366Z,94180.14
2019-03-15T03:13:02.696Z,94181.31
2019-03-15T03:15:29.027Z,94182.24
2019-03-15T03:17:55.399Z,94184.14
2019-03-15T03:20:21.775Z,94190.05
2019-03-15T03:22:48.109Z,94187.73
2019-03-15T03:25:14.528Z,94186.00
2019-03-15T03:27:40.931Z,94185.95
2019-03-15T03:30:07.279Z,94184.00
2019-03-15T03:32:33.612Z,94182.50
2019-03-15T03:35:00.039Z,94184.20
2019-03-15T03:37:26.327Z,94185.95
2019-03-15T03:39:52.650Z,94191.03
2019-03-15T03:42:19.133Z,94191.70
2019-03-15T03:44:45.503Z,94188.05
2019-03-15T03:47:11.837Z,94194.02
2019-03-15T03:49:38.166Z,94199.88
2019-03-15T03:52:04.545Z,94195.70
2019-03-15T03:54:30.925Z,94198.13
2019-03-15T03:56:57.287Z,94204.45
2019-03-15T03:59:23.598Z,94205.52
2019-03-15T04:01:49.925Z,94206.23
2019-03-15T04:04:16.299Z,94206.78
2019-03-15T04:06:42.731Z,94207.20
2019-03-15T04:09:09.029Z,94204.80
2019-03-15T04:11:35.359Z,94203.49
2019-03-15T04:14:01.792Z,94203.88
2019-03-15T04:16:28.069Z,94201.80
2019-03-15T04:18:54.430Z,94199.02
2019-03-15T04:21:20.755Z,94198.29
2019-03-15T04:23:47.092Z,94206.94
2019-03-15T04:26:13.411Z,94209.64
2019-03-15T04:28:39.743Z,94215.47
2019-03-15T04:31:06.109Z,94216.67
2019-03-15T04:33:32.487Z,94215.20
2019-03-15T04:35:58.868Z,94217.98
2019-03-15T04:38:25.404Z,94213.97
2019-03-15T04:40:51.733Z,94217.09
2019-03-15T04:43:18.110Z,94220.48
2019-03-15T04:45:44.396Z,94218.62
2019-03-15T04:48:10.751Z,94222.80
2019-03-15T04:50:37.170Z,94223.49
2019-03-15T04:53:03.548Z,94226.73
2019-03-15T04:55:29.874Z,94222.81
2019-03-15T04:57:56.232Z,94227.37
2019-03-15T05:00:22.567Z,94231.63
2019-03-15T05:02:48.960Z,94233.00
2019-03-15T05:05:15.309Z,94229.95
2019-03-15T05:07:41.623Z,94236.40
2019-03-15T05:10:08.076Z,94234.84
2019-03-15T05:12:34.460Z,94244.72
2019-03-15T05:15:00.817Z,94247.13
2019-03-15T05:17:27.234Z,94247.76
2019-03-15T05:19:53.552Z,94247.29
2019-03-15T05:22:19.921Z,94250.73
2019-03-15T05:24:46.311Z,94252.56
2019-03-15T05:27:12.641Z,94252.02
2019-03-15T05:29:38.994Z,94254.31
2019-03-15T05:32:05.351Z,94260.16
2019-03-15T05:34:31.682Z,94265.52
2019-03-15T05:36:58.040Z,94258.99
2019-03-15T05:39:24.394Z,94263.55
2019-03-15T05:41:50.830Z,94265.11
2019-03-15T05:44:17.175Z,94267.73
2019-03-15T05:46:43.556Z,94269.98
2019-03-15T05:49:09.883Z,94280.08
2019-03-15T05:51:36.279Z,94281.88
2019-03-15T05:54:02.730Z,94249.37
2019-03-15T05:56:29.063Z,94281.89
2019-03-15T05:58:55.512Z,94278.64
2019-03-15T06:01:21.885Z,94279.17
2019-03-15T06:03:49.229Z,94285.75
2019-03-15T06:06:14.528Z,94284.46
2019-03-15T06:08:40.854Z,94288.59
2019-03-15T06:11:07.242Z,94287.02
2019-03-15T06:13:33.583Z,94284.91
2019-03-15T06:15:59.948Z,94289.56
2019-03-15T06:18:26.457Z,94289.82
2019-03-15T06:20:52.800Z,94289.38
2019-03-15T06:23:19.134Z,94291.86
2019-03-15T06:25:45.476Z,94297.70
2019-03-15T06:28:11.823Z,94293.38
2019-03-15T06:30:38.164Z,94297.42
2019-03-15T06:33:04.550Z,94296.60
2019-03-15T06:35:30.904Z,94299.75
2019-03-15T06:37:57.286Z,94306.53
2019-03-15T06:40:23.679Z,94312.52
2019-03-15T06:42:50.117Z,94311.33
2019-03-15T06:45:16.412Z,94311.89
2019-03-15T06:47:42.761Z,94308.23
2019-03-15T06:50:09.086Z,94317.06
2019-03-15T06:52:35.510Z,94322.27
2019-03-15T06:55:05.110Z,94324.91
2019-03-15T06:57:28.254Z,94319.80
2019-03-15T06:59:54.601Z,94321.63
2019-03-15T07:02:21.018Z,94321.34
2019-03-15T07:04:47.358Z,94324.63
2019-03-15T07:07:15.235Z,94322.09
2019-03-15T07:09:40.306Z,94319.22
2019-03-15T07:12:09.794Z,94322.64
2019-03-15T07:14:33.009Z,94320.33
2019-03-15T07:16:59.427Z,94323.43
2019-03-15T07:19:30.222Z,94324.19
2019-03-15T07:21:52.171Z,94318.09
2019-03-15T07:24:24.925Z,94313.80
2019-03-15T07:26:44.882Z,94320.61
2019-03-15T07:29:11.276Z,94320.31
2019-03-15T07:31:37.683Z,94323.25
2019-03-15T07:34:04.033Z,94324.00
2019-03-15T07:36:30.598Z,94325.75
2019-03-15T07:38:56.917Z,94323.25
2019-03-15T07:41:25.411Z,94317.61
2019-03-15T07:43:49.677Z,94311.94
2019-03-15T07:46:16.022Z,94307.53
2019-03-15T07:48:42.580Z,94309.58
2019-03-15T07:51:09.141Z,94308.98
2019-03-15T07:53:35.709Z,94312.91
2019-03-15T07:56:01.907Z,94311.09
2019-03-15T07:58:28.347Z,94309.33
2019-03-15T08:00:54.661Z,94308.24
2019-03-15T08:03:21.001Z,94311.62
2019-03-15T08:05:47.427Z,94310.80
2019-03-15T08:08:13.816Z,94314.89
2019-03-15T08:10:40.249Z,94318.28
2019-03-15T08:13:06.763Z,94318.72
2019-03-15T08:15:33.243Z,94318.55
2019-03-15T08:17:59.577Z,94320.79
2019-03-15T08:20:26.022Z,94328.02
2019-03-15T08:22:52.476Z,94329.01
2019-03-15T08:25:18.974Z,94330.25
2019-03-15T08:27:45.416Z,94333.53
2019-03-15T08:30:11.763Z,94328.20
2019-03-15T08:32:38.227Z,94330.61
2019-03-15T08:35:04.624Z,94331.59
2019-03-15T08:37:31.050Z,94333.36
2019-03-15T08:39:57.459Z,94332.61
2019-03-15T08:42:23.870Z,94325.00
2019-03-15T08:44:50.236Z,94331.80
2019-03-15T08:47:16.652Z,94334.02
2019-03-15T08:49:43.032Z,94332.66
2019-03-15T08:52:09.394Z,94329.33
2019-03-15T08:54:35.782Z,94327.27
2019-03-15T08:57:02.133Z,94329.64
2019-03-15T08:59:28.495Z,94328.69
2019-03-15T09:01:54.961Z,94325.25
2019-03-15T09:04:21.765Z,94324.41
2019-03-15T09:06:47.668Z,94319.12
2019-03-15T09:09:14.018Z,94320.72
2019-03-15T09:11:40.369Z,94320.19
2019-03-15T09:14:06.705Z,94322.48
2019-03-15T09:16:33.045Z,94319.42
2019-03-15T09:18:59.399Z,94318.42
2019-03-15T09:21:25.734Z,94313.78
2019-03-15T09:23:52.105Z,94311.97
2019-03-15T09:26:18.540Z,94311.38
2019-03-15T09:28:44.930Z,94314.05
2019-03-15T09:31:11.251Z,94299.95
2019-03-15T09:33:37.672Z,94314.75
2019-03-15T09:36:03.978Z,94309.99
2019-03-15T09:38:30.320Z,94310.39
2019-03-15T09:40:56.724Z,94302.45
2019-03-15T09:43:23.154Z,94311.66
2019-03-15T09:45:49.531Z,94310.97
2019-03-15T09:48:15.918Z,94310.77
2019-03-15T09:50:51.097Z,94315.69
2019-03-15T09:53:08.652Z,94317.25
2019-03-15T09:55:34.962Z,94320.17
2019-03-15T09:58:01.308Z,94304.39
2019-03-15T10:00:27.651Z,94306.12
2019-03-15T10:02:56.038Z,94320.17
2019-03-15T10:05:20.378Z,94315.35
2019-03-15T10:07:46.742Z,94313.95
2019-03-15T10:10:14.203Z,94310.97
2019-03-15T10:12:39.414Z,94307.16
2019-03-15T10:15:07.998Z,94300.98
2019-03-15T10:17:32.195Z,94306.33
2019-03-15T10:19:58.470Z,94304.68
2019-03-15T10:22:24.856Z,94297.36
2019-03-15T10:24:51.241Z,94300.01
2019-03-15T10:27:17.610Z,94303.96
2019-03-15T10:29:43.952Z,94303.97
2019-03-15T10:32:10.296Z,94297.06
2019-03-15T10:34:36.677Z,94298.36
2019-03-15T10:37:06.012Z,94297.06
2019-03-15T10:39:29.396Z,94289.32
2019-03-15T10:41:55.753Z,94294.72
2019-03-15T10:44:22.100Z,94290.00
2019-03-15T10:46:48.470Z,94277.86
2019-03-15T10:49:14.798Z,94290.14
2019-03-15T10:51:41.191Z,94286.14
2019-03-15T10:54:07.501Z,94281.74
2019-03-15T10:56:33.900Z,94277.51
2019-03-15T10:59:00.245Z,94286.54
2019-03-15T11:01:26.680Z,94278.74
2019-03-15T11:03:52.998Z,94272.36
2019-03-15T11:06:19.410Z,94283.95
2019-03-15T11:08:45.711Z,94282.50
2019-03-15T11:11:12.063Z,94271.58
2019-03-15T11:13:38.837Z,94264.97
2019-03-15T11:16:05.186Z,94270.66
2019-03-15T11:18:31.512Z,94258.44
2019-03-15T11:20:57.860Z,94257.57
2019-03-15T11:23:24.236Z,94257.91
2019-03-15T11:25:50.663Z,94256.17
2019-03-15T11:28:17.017Z,94247.48
2019-03-15T11:30:43.358Z,94249.41
2019-03-15T11:33:09.799Z,94247.91
2019-03-15T11:35:36.189Z,94246.14
2019-03-15T11:38:02.718Z,94250.77
2019-03-15T11:40:29.080Z,94255.35
2019-03-15T11:42:55.426Z,94252.77
2019-03-15T11:45:21.781Z,94245.47
2019-03-15T11:48:02.689Z,94241.03
2019-03-15T11:50:14.585Z,94241.97
2019-03-15T11:52:40.916Z,94244.47
2019-03-15T11:55:07.277Z,94238.63
2019-03-15T11:57:33.687Z,94220.67
2019-03-15T12:00:00.044Z,94228.30
2019-03-15T12:02:26.397Z,94225.11
2019-03-15T12:04:52.761Z,94225.83
2019-03-15T12:07:19.232Z,94224.13
2019-03-15T12:09:45.622Z,94229.13
2019-03-15T12:12:12.059Z,94227.42
2019-03-15T12:14:41.077Z,94229.00
2019-03-15T12:17:04.792Z,94223.86
2019-03-15T12:19:31.194Z,94216.39
2019-03-15T12:22:06.108Z,94212.81
2019-03-15T12:24:23.952Z,94214.98
2019-03-15T12:26:50.316Z,94215.39
2019-03-15T12:29:18.186Z,94216.41
2019-03-15T12:31:44.586Z,94208.06
2019-03-15T12:34:10.938Z,94211.93
2019-03-15T12:36:37.283Z,94206.25
2019-03-15T12:39:03.804Z,94208.64
2019-03-15T12:41:30.174Z,94208.83
2019-03-15T12:43:56.507Z,94214.17
2019-03-15T12:46:22.904Z,94205.91
2019-03-15T12:48:49.234Z,94202.55
2019-03-15T12:51:15.590Z,94199.84
2019-03-15T12:53:41.923Z,94200.31
2019-03-15T12:56:10.951Z,94198.03
2019-03-15T12:58:34.709Z,94205.25
2019-03-15T13:01:01.100Z,94204.61
2019-03-15T13:03:27.433Z,94212.17
2019-03-15T13:05:53.894Z,94210.10
2019-03-15T13:08:20.321Z,94204.08
2019-03-15T13:10:46.766Z,94210.12
2019-03-15T13:13:13.154Z,94207.13
2019-03-15T13:15:39.467Z,94210.75
2019-03-15T13:18:05.839Z,94207.28
2019-03-15T13:20:32.185Z,94200.31
2019-03-15T13:22:58.590Z,94205.23
2019-03-15T13:25:24.934Z,94210.64
2019-03-15T13:27:51.285Z,94206.06
2019-03-15T13:30:17.617Z,94211.11
2019-03-15T13:32:43.981Z,94214.03
2019-03-15T13:35:10.362Z,94211.50
2019-03-15T13:37:36.778Z,94216.55
2019-03-15T13:40:03.162Z,94220.78
2019-03-15T13:42:29.519Z,94217.86
2019-03-15T13:44:55.870Z,94220.66
2019-03-15T13:47:22.237Z,94220.38
2019-03-15T13:49:48.572Z,94215.08
2019-03-15T13:52:14.920Z,94217.31
2019-03-15T13:54:41.268Z,94224.23
2019-03-15T13:57:20.170Z,94222.30
2019-03-15T13:59:33.945Z,94222.17
2019-03-15T14:02:00.431Z,94221.48
2019-03-15T14:04:26.832Z,94224.02
2019-03-15T14:06:53.241Z,94230.86
2019-03-15T14:09:19.559Z,94231.16
2019-03-15T14:11:46.031Z,94227.42
2019-03-15T14:14:12.379Z,94230.14
2019-03-15T14:16:38.721Z,94229.98
2019-03-15T14:19:05.076Z,94228.73
2019-03-15T14:21:31.438Z,94228.10
2019-03-15T14:23:57.776Z,94235.44
2019-03-15T14:26:24.115Z,94233.33
2019-03-15T14:28:50.554Z,94232.27
2019-03-15T14:31:16.882Z,94233.02
2019-03-15T14:33:43.299Z,94241.55
2019-03-15T14:36:09.698Z,94243.30
2019-03-15T14:38:36.059Z,94244.95
2019-03-15T14:41:02.647Z,94247.98
2019-03-15T14:43:28.829Z,94245.42
2019-03-15T14:45:55.225Z,94253.47
2019-03-15T14:48:21.499Z,94253.76
2019-03-15T14:50:47.999Z,94253.58
2019-03-15T14:53:14.343Z,94264.27
2019-03-15T14:55:40.828Z,94266.66
2019-03-15T14:58:07.169Z,94266.29
2019-03-15T15:00:33.550Z,94271.17
2019-03-15T15:02:59.993Z,94270.83
2019-03-15T15:05:26.430Z,94272.94
2019-03-15T15:07:52.774Z,94275.77
2019-03-15T15:10:19.136Z,94280.03
2019-03-15T15:12:45.642Z,94283.38
2019-03-15T15:15:12.082Z,94284.91
2019-03-15T15:17:38.344Z,94283.03
2019-03-15T15:20:04.694Z,94289.48
2019-03-15T15:22:31.180Z,94285.27
2019-03-15T15:24:57.513Z,94286.56
2019-03-15T15:27:25.631Z,94288.36
2019-03-15T15:29:50.240Z,94295.65
2019-03-15T15:32:16.613Z,94294.02
2019-03-15T15:34:46.060Z,94294.83
2019-03-15T15:37:12.404Z,94299.17
2019-03-15T15:39:38.747Z,94300.73
2019-03-15T15:42:05.110Z,94295.81
2019-03-15T15:44:31.488Z,94304.03
2019-03-15T15:46:57.916Z,94312.06
2019-03-15T15:49:26.146Z,94310.01
2019-03-15T15:51:50.755Z,94319.46
2019-03-15T15:54:17.089Z,94316.25
2019-03-15T15:56:43.433Z,94323.05
2019-03-15T15:59:09.794Z,94321.75
2019-03-15T16:01:36.104Z,94328.78
2019-03-15T16:04:02.763Z,94334.48
2019-03-15T16:06:29.063Z,94338.19
2019-03-15T16:08:55.444Z,94338.63
2019-03-15T16:11:21.731Z,94343.61
2019-03-15T16:13:49.376Z,94342.33
2019-03-15T16:16:14.444Z,94348.27
2019-03-15T16:18:40.831Z,94352.48
2019-03-15T16:21:07.186Z,94355.89
2019-03-15T16:23:33.498Z,94359.35
2019-03-15T16:25:59.846Z,94365.33
2019-03-15T16:28:31.341Z,94367.73
2019-03-15T16:30:52.576Z,94367.25
2019-03-15T16:33:18.886Z,94367.25
2019-03-15T16:35:45.540Z,94381.45
2019-03-15T16:38:11.900Z,94385.89
2019-03-15T16:40:38.229Z,94391.18
2019-03-15T16:43:04.611Z,94397.34
2019-03-15T16:45:31.096Z,94405.05
2019-03-15T16:47:57.494Z,94409.05
2019-03-15T16:50:23.868Z,94409.20
2019-03-15T16:52:50.273Z,94417.02
2019-03-15T16:55:16.613Z,94416.33
2019-03-15T16:57:42.943Z,94420.48
2019-03-15T17:00:09.356Z,94422.52
2019-03-15T17:02:35.716Z,94434.60
2019-03-15T17:05:02.152Z,94438.82
2019-03-15T17:07:28.523Z,94435.16
2019-03-15T17:09:54.804Z,94439.97
2019-03-15T17:12:21.248Z,94444.19
2019-03-15T17:14:47.541Z,94450.10
2019-03-15T17:17:13.927Z,94453.97
2019-03-15T17:19:40.268Z,94454.38
2019-03-15T17:22:06.691Z,94453.91
2019-03-15T17:24:32.983Z,94463.09
2019-03-15T17:26:59.394Z,94469.63
2019-03-15T17:29:25.768Z,94473.65
2019-03-15T17:31:52.267Z,94480.41
2019-03-15T17:34:18.603Z,94484.72
2019-03-15T17:36:45.022Z,94486.48
2019-03-15T17:39:11.311Z,94493.55
2019-03-15T17:41:37.766Z,94495.03
2019-03-15T17:44:04.101Z,94496.17
2019-03-15T17:46:30.500Z,94497.61
2019-03-15T17:48:57.002Z,94502.84
2019-03-15T17:51:23.372Z,94508.52
2019-03-15T17:53:49.865Z,94511.45
2019-03-15T17:56:16.238Z,94508.75
2019-03-15T17:58:42.615Z,94512.19
2019-03-15T18:01:08.962Z,94507.86
2019-03-15T18:03:35.463Z,94515.13
2019-03-15T18:06:01.751Z,94520.83
2019-03-15T18:08:28.159Z,94515.78
2019-03-15T18:10:54.513Z,94515.39
2019-03-15T18:13:20.849Z,94517.53
2019-03-15T18:15:47.205Z,94529.67
2019-03-15T18:18:13.597Z,94531.98
2019-03-15T18:20:40.024Z,94530.64
2019-03-15T18:23:06.411Z,94530.21
2019-03-15T18:25:32.684Z,94539.23
2019-03-15T18:27:59.025Z,94541.52
2019-03-15T18:30:25.392Z,94545.04
2019-03-15T18:32:51.675Z,94556.84
2019-03-15T18:35:18.034Z,94553.57
2019-03-15T18:37:44.366Z,94558.31
2019-03-15T18:40:10.870Z,94546.19
2019-03-15T18:42:37.088Z,94560.42
2019-03-15T18:45:03.434Z,94564.28
2019-03-15T18:47:29.784Z,94569.23
2019-03-15T18:49:56.113Z,94566.56
2019-03-15T18:52:22.482Z,94570.95
2019-03-15T18:54:48.835Z,94575.17
2019-03-15T18:57:15.177Z,94568.31
2019-03-15T18:59:41.551Z,94574.98
2019-03-15T19:02:07.905Z,94580.75
2019-03-15T19:04:34.363Z,94585.90
2019-03-15T19:07:00.640Z,94589.34
2019-03-15T19:09:26.981Z,94586.53
2019-03-15T19:11:53.482Z,94580.03
2019-03-15T19:14:19.825Z,94583.75
2019-03-15T19:16:46.227Z,94587.05
2019-03-15T19:19:12.626Z,94588.13
2019-03-15T19:21:39.173Z,94593.89
2019-03-15T19:24:05.465Z,94597.86
2019-03-15T19:26:31.849Z,94592.15
2019-03-15T19:28:58.212Z,94597.66
2019-03-15T19:31:24.552Z,94595.19
2019-03-15T19:33:51.069Z,94600.13
2019-03-15T19:36:17.422Z,94604.14
2019-03-15T19:38:43.857Z,94602.60
2019-03-15T19:41:10.177Z,94604.97
2019-03-15T19:43:36.578Z,94610.58
2019-03-15T19:46:02.865Z,94610.84
2019-03-15T19:48:29.216Z,94608.87
2019-03-15T19:50:55.582Z,94609.69
2019-03-15T19:53:21.921Z,94612.16
2019-03-15T19:55:48.514Z,94617.45
2019-03-15T19:58:14.906Z,94618.17
2019-03-15T20:00:41.288Z,94628.33
2019-03-15T20:03:07.627Z,94634.76
2019-03-15T20:05:34.058Z,94637.12
2019-03-15T20:08:00.416Z,94644.13
2019-03-15T20:10:26.867Z,94640.02
2019-03-15T20:12:53.176Z,94639.12
2019-03-15T20:15:19.544Z,94652.31
2019-03-15T20:17:45.970Z,94650.70
2019-03-15T20:20:12.286Z,94644.73
2019-03-15T20:22:38.678Z,94644.84
2019-03-15T20:25:05.068Z,94644.27
2019-03-15T20:27:31.398Z,94646.05
2019-03-15T20:29:57.757Z,94644.27
2019-03-15T20:32:24.133Z,94644.88
2019-03-15T20:34:50.501Z,94650.63
2019-03-15T20:37:16.843Z,94639.52
2019-03-15T20:39:43.187Z,94650.05
2019-03-15T20:42:09.536Z,94645.73
2019-03-15T20:44:35.931Z,94642.20
2019-03-15T20:47:02.309Z,94640.34
2019-03-15T20:49:28.730Z,94641.55
2019-03-15T20:51:55.070Z,94638.16
2019-03-15T20:54:21.363Z,94640.73
2019-03-15T20:56:47.692Z,94639.91
2019-03-15T20:59:14.078Z,94644.12
2019-03-15T21:01:40.525Z,94646.23
2019-03-15T21:04:06.861Z,94639.94
2019-03-15T21:06:33.249Z,94637.44
2019-03-15T21:08:59.577Z,94641.79
2019-03-15T21:11:26.004Z,94639.58
2019-03-15T21:13:52.336Z,94641.11
2019-03-15T21:16:18.698Z,94635.97
2019-03-15T21:18:45.064Z,94637.25
2019-03-15T21:21:11.672Z,94638.42
2019-03-15T21:23:38.078Z,94636.21
2019-03-15T21:26:04.439Z,94643.57
2019-03-15T21:28:30.870Z,94643.45
2019-03-15T21:30:57.214Z,94651.42
2019-03-15T21:33:23.598Z,94647.10
2019-03-15T21:35:50.027Z,94642.42
2019-03-15T21:38:16.372Z,94643.13
2019-03-15T21:40:42.746Z,94643.37
2019-03-15T21:43:09.117Z,94648.16
2019-03-15T21:45:35.545Z,94656.70
2019-03-15T21:48:01.905Z,94651.80
2019-03-15T21:50:28.286Z,94663.84
2019-03-15T21:52:54.609Z,94662.19
2019-03-15T21:55:21.010Z,94666.41
2019-03-15T21:57:47.387Z,94665.47
2019-03-15T22:00:13.681Z,94663.39
2019-03-15T22:02:40.099Z,94662.57
2019-03-15T22:05:06.497Z,94663.73
2019-03-15T22:07:32.862Z,94671.67
2019-03-15T22:09:59.209Z,94672.27
2019-03-15T22:12:25.603Z,94679.17
2019-03-15T22:14:52.011Z,94679.05
2019-03-15T22:17:18.412Z,94676.38
2019-03-15T22:19:44.789Z,94675.80
2019-03-15T22:22:11.101Z,94677.31
2019-03-15T22:24:37.479Z,94680.35
2019-03-15T22:27:03.897Z,94684.89
2019-03-15T22:29:30.196Z,94686.88
2019-03-15T22:31:56.533Z,94682.70
2019-03-15T22:34:22.831Z,94684.67
2019-03-15T22:36:49.206Z,94679.29
2019-03-15T22:39:15.631Z,94680.34
2019-03-15T22:41:41.982Z,94674.94
2019-03-15T22:44:08.443Z,94680.91
2019-03-15T22:46:34.819Z,94680.32
2019-03-15T22:49:01.173Z,94674.72
2019-03-15T22:51:27.504Z,94678.34
2019-03-15T22:53:53.891Z,94678.81
2019-03-15T22:56:20.313Z,94676.14
2019-03-15T22:58:46.554Z,94678.82
2019-03-15T23:01:13.033Z,94675.66
2019-03-15T23:03:39.386Z,94669.60
2019-03-15T23:06:05.784Z,94664.23
2019-03-15T23:08:32.127Z,94664.10
2019-03-15T23:10:58.457Z,94662.00
2019-03-15T23:13:24.813Z,94663.50
2019-03-15T23:15:51.219Z,94657.45
2019-03-15T23:18:17.656Z,94653.83
2019-03-15T23:20:43.944Z,94660.95
2019-03-15T23:23:22.916Z,94665.27
2019-03-15T23:25:36.796Z,94660.72
2019-03-15T23:28:03.026Z,94668.67
2019-03-15T23:30:29.498Z,94668.44
2019-03-15T23:32:55.766Z,94664.35
2019-03-15T23:35:22.176Z,94674.63
2019-03-15T23:37:48.499Z,94669.73
2019-03-15T23:40:14.871Z,94670.19
2019-03-15T23:42:41.283Z,94661.42
2019-03-15T23:45:07.625Z,94665.87
2019-03-15T23:47:33.955Z,94660.48
2019-03-15T23:50:00.382Z,94653.01
2019-03-15T23:52:26.700Z,94648.47
2019-03-15T23:54:52.999Z,94655.80
2019-03-15T23:57:19.382Z,94645.08
2019-03-15T23:59:45.738Z,94648.56
